createdAt,value
2022-08-08T00:00:41.092Z,101634.75
2022-08-08T00:02:43.037Z,101633.59
2022-08-08T00:05:11.124Z,101630.81
2022-08-08T00:07:56.405Z,101629.78
2022-08-08T00:10:45.451Z,101624.88
2022-08-08T00:14:14.598Z,101629.16
2022-08-08T00:16:24.330Z,101622.91
2022-08-08T00:18:57.489Z,101622.53
2022-08-08T00:21:39.334Z,101629.25
2022-08-08T00:24:16.610Z,101624.97
2022-08-08T00:26:50.376Z,101633.53
2022-08-08T00:29:45.438Z,101624.59
2022-08-08T00:32:35.157Z,101633.06
2022-08-08T00:35:21.302Z,101631.91
2022-08-08T00:38:04.360Z,101624.50
2022-08-08T00:41:09.729Z,101633.25
2022-08-08T00:44:13.400Z,101623.31
2022-08-08T00:47:14.296Z,101626.13
2022-08-08T00:50:23.504Z,101630.13
2022-08-08T00:53:29.264Z,101624.00
2022-08-08T00:56:29.541Z,101626.84
2022-08-08T00:59:44.669Z,101623.19
2022-08-08T01:03:59.720Z,101629.16
2022-08-08T01:06:32.683Z,101631.13
2022-08-08T01:09:41.163Z,101630.94
2022-08-08T01:12:34.305Z,101630.81
2022-08-08T01:15:44.274Z,101632.16
2022-08-08T01:18:53.396Z,101639.06
2022-08-08T01:22:10.233Z,101639.56
2022-08-08T01:25:08.260Z,101632.16
2022-08-08T01:28:00.168Z,101631.13
2022-08-08T01:31:06.008Z,101635.06
2022-08-08T01:33:54.076Z,101640.88
2022-08-08T01:36:37.931Z,101642.88
2022-08-08T01:39:28.740Z,101636.00
2022-08-08T01:42:11.271Z,101640.41
2022-08-08T01:44:54.853Z,101639.88
2022-08-08T01:48:13.848Z,101642.69
2022-08-08T01:52:03.397Z,101644.34
2022-08-08T01:55:25.902Z,101637.41
2022-08-08T01:57:17.607Z,101635.44
2022-08-08T02:00:06.949Z,101635.59
2022-08-08T02:03:07.216Z,101638.56
2022-08-08T02:06:02.936Z,101631.44
2022-08-08T02:09:17.422Z,101628.91
2022-08-08T02:11:53.059Z,101635.56
2022-08-08T02:14:55.276Z,101640.69
2022-08-08T02:17:42.654Z,101642.69
2022-08-08T02:21:01.252Z,101644.16
2022-08-08T02:23:16.223Z,101651.91
2022-08-08T02:26:10.014Z,101646.00
2022-08-08T02:28:39.740Z,101648.63
2022-08-08T02:31:59.506Z,101650.91
2022-08-08T02:35:08.061Z,101654.25
2022-08-08T02:37:58.354Z,101641.63
2022-08-08T02:40:49.991Z,101647.25
2022-08-08T02:44:39.150Z,101653.84
2022-08-08T02:46:37.132Z,101659.44
2022-08-08T02:49:48.226Z,101646.97
2022-08-08T02:52:50.519Z,101653.84
2022-08-08T02:55:37.264Z,101654.78
2022-08-08T02:58:22.703Z,101647.38
2022-08-08T03:01:21.019Z,101654.66
2022-08-08T03:05:04.334Z,101650.28
2022-08-08T03:07:58.158Z,101654.94
2022-08-08T03:11:07.468Z,101647.84
2022-08-08T03:15:57.090Z,101651.72
2022-08-08T03:17:06.934Z,101649.38
2022-08-08T03:20:03.715Z,101647.47
2022-08-08T03:22:38.546Z,101648.69
2022-08-08T03:25:09.320Z,101645.34
2022-08-08T03:27:57.316Z,101641.41
2022-08-08T03:30:25.833Z,101646.56
2022-08-08T03:32:58.866Z,101643.31
2022-08-08T03:35:33.216Z,101646.31
2022-08-08T03:38:55.788Z,101654.47
2022-08-08T03:40:53.265Z,101652.22
2022-08-08T03:43:20.255Z,101652.28
2022-08-08T03:46:05.853Z,101658.31
2022-08-08T03:49:09.562Z,101663.41
2022-08-08T03:51:40.450Z,101669.66
2022-08-08T03:54:06.764Z,101670.84
2022-08-08T03:56:34.980Z,101674.06
2022-08-08T03:59:02.036Z,101683.78
2022-08-08T04:02:15.727Z,101682.69
2022-08-08T04:04:30.996Z,101686.13
2022-08-08T04:07:01.335Z,101684.91
2022-08-08T04:09:28.684Z,101686.91
2022-08-08T04:12:15.852Z,101691.59
2022-08-08T04:14:45.201Z,101688.59
2022-08-08T04:17:22.224Z,101687.03
2022-08-08T04:19:58.343Z,101694.09
2022-08-08T04:22:24.701Z,101691.94
2022-08-08T04:24:56.399Z,101691.72
2022-08-08T04:28:02.977Z,101689.88
2022-08-08T04:30:18.243Z,101690.91
2022-08-08T04:32:48.067Z,101698.31
2022-08-08T04:35:16.843Z,101693.50
2022-08-08T04:37:43.168Z,101697.44
2022-08-08T04:40:12.760Z,101706.28
2022-08-08T04:42:46.650Z,101704.75
2022-08-08T04:45:25.468Z,101697.78
2022-08-08T04:47:53.322Z,101697.25
2022-08-08T04:50:25.259Z,101699.31
2022-08-08T04:53:00.927Z,101691.47
2022-08-08T04:55:47.114Z,101697.00
2022-08-08T04:58:14.441Z,101703.09
2022-08-08T05:00:43.917Z,101702.72
2022-08-08T05:03:12.583Z,101710.41
2022-08-08T05:05:44.608Z,101704.63
2022-08-08T05:08:12.729Z,101704.28
2022-08-08T05:10:39.224Z,101704.03
2022-08-08T05:13:05.804Z,101706.00
2022-08-08T05:16:51.361Z,101702.72
2022-08-08T05:18:30.428Z,101695.44
2022-08-08T05:20:56.742Z,101699.56
2022-08-08T05:23:24.966Z,101699.94
2022-08-08T05:26:00.337Z,101697.78
2022-08-08T05:28:56.707Z,101705.63
2022-08-08T05:31:30.784Z,101707.44
2022-08-08T05:33:59.816Z,101709.97
2022-08-08T05:36:27.952Z,101707.84
2022-08-08T05:38:57.518Z,101706.72
2022-08-08T05:41:25.701Z,101703.59
2022-08-08T05:44:09.927Z,101704.50
2022-08-08T05:46:38.101Z,101715.09
2022-08-08T05:49:10.389Z,101712.44
2022-08-08T05:51:48.988Z,101715.22
2022-08-08T05:54:42.725Z,101714.09
2022-08-08T05:57:09.325Z,101719.88
2022-08-08T06:00:01.248Z,101714.59
2022-08-08T06:02:24.546Z,101723.88
2022-08-08T06:04:56.003Z,101720.28
2022-08-08T06:07:23.225Z,101724.31
2022-08-08T06:09:59.698Z,101724.84
2022-08-08T06:12:29.711Z,101719.38
2022-08-08T06:15:00.839Z,101722.06
2022-08-08T06:17:50.176Z,101730.28
2022-08-08T06:20:13.970Z,101727.97
2022-08-08T06:22:42.820Z,101726.81
2022-08-08T06:25:10.305Z,101729.00
2022-08-08T06:27:54.077Z,101729.84
2022-08-08T06:30:28.221Z,101739.22
2022-08-08T06:32:57.328Z,101728.00
2022-08-08T06:36:07.313Z,101742.19
2022-08-08T06:38:14.584Z,101740.56
2022-08-08T06:40:53.621Z,101746.97
2022-08-08T06:43:30.552Z,101746.75
2022-08-08T06:46:02.152Z,101742.22
2022-08-08T06:48:29.473Z,101748.44
2022-08-08T06:50:57.756Z,101747.78
2022-08-08T06:53:25.859Z,101760.13
2022-08-08T06:56:07.768Z,101756.59
2022-08-08T06:58:35.219Z,101757.50
2022-08-08T07:01:11.675Z,101761.50
2022-08-08T07:04:40.188Z,101760.28
2022-08-08T07:06:53.313Z,101768.31
2022-08-08T07:09:21.555Z,101770.75
2022-08-08T07:11:51.529Z,101767.50
2022-08-08T07:14:25.542Z,101775.19
2022-08-08T07:16:58.925Z,101768.22
2022-08-08T07:19:56.031Z,101770.41
2022-08-08T07:22:45.153Z,101775.56
2022-08-08T07:25:17.254Z,101778.63
2022-08-08T07:28:01.759Z,101776.56
2022-08-08T07:30:28.990Z,101782.28
2022-08-08T07:32:59.225Z,101783.69
2022-08-08T07:35:27.065Z,101784.22
2022-08-08T07:38:05.009Z,101793.25
2022-08-08T07:40:44.916Z,101790.47
2022-08-08T07:43:12.414Z,101787.16
2022-08-08T07:46:05.385Z,101790.78
2022-08-08T07:48:29.599Z,101793.09
2022-08-08T07:50:58.742Z,101773.34
2022-08-08T07:54:02.308Z,101792.31
2022-08-08T07:56:36.293Z,101783.41
2022-08-08T07:59:10.465Z,101774.97
2022-08-08T08:02:35.445Z,101783.25
2022-08-08T08:04:34.010Z,101787.09
2022-08-08T08:07:06.515Z,101788.94
2022-08-08T08:09:37.946Z,101788.84
2022-08-08T08:12:07.134Z,101788.50
2022-08-08T08:14:58.216Z,101795.03
2022-08-08T08:17:47.458Z,101797.91
2022-08-08T08:20:15.510Z,101795.38
2022-08-08T08:22:43.074Z,101788.84
2022-08-08T08:25:09.620Z,101787.00
2022-08-08T08:27:36.851Z,101790.81
2022-08-08T08:30:04.918Z,101792.13
2022-08-08T08:32:36.455Z,101787.50
2022-08-08T08:35:08.830Z,101799.97
2022-08-08T08:37:59.294Z,101792.97
2022-08-08T08:40:22.705Z,101789.56
2022-08-08T08:42:53.360Z,101797.19
2022-08-08T08:45:23.659Z,101789.09
2022-08-08T08:47:54.285Z,101794.81
2022-08-08T08:50:33.029Z,101787.81
2022-08-08T08:53:28.077Z,101789.72
2022-08-08T08:55:50.891Z,101786.19
2022-08-08T08:58:41.547Z,101791.47
2022-08-08T09:01:13.105Z,101782.09
2022-08-08T09:03:45.896Z,101787.72
2022-08-08T09:06:37.192Z,101786.44
2022-08-08T09:09:26.126Z,101785.25
2022-08-08T09:12:08.011Z,101790.88
2022-08-08T09:14:35.499Z,101787.47
2022-08-08T09:17:09.722Z,101786.63
2022-08-08T09:22:04.774Z,101784.59
2022-08-08T09:22:27.531Z,101785.34
2022-08-08T09:24:56.048Z,101784.47
2022-08-08T09:27:55.811Z,101782.63
2022-08-08T09:30:14.787Z,101780.16
2022-08-08T09:32:50.344Z,101782.28
2022-08-08T09:35:37.390Z,101793.88
2022-08-08T09:38:05.847Z,101778.50
2022-08-08T09:40:47.828Z,101779.94
2022-08-08T09:44:05.115Z,101775.94
2022-08-08T09:46:16.949Z,101774.31
2022-08-08T09:48:53.586Z,101775.53
2022-08-08T09:51:26.755Z,101774.94
2022-08-08T09:54:07.510Z,101777.00
2022-08-08T09:56:37.243Z,101779.34
2022-08-08T09:59:42.873Z,101774.50
2022-08-08T10:02:12.226Z,101763.38
2022-08-08T10:04:42.150Z,101771.22
2022-08-08T10:07:16.355Z,101775.94
2022-08-08T10:10:00.043Z,101771.19
2022-08-08T10:12:37.488Z,101768.91
2022-08-08T10:15:17.285Z,101761.41
2022-08-08T10:18:07.409Z,101756.88
2022-08-08T10:20:51.236Z,101759.22
2022-08-08T10:23:51.016Z,101762.72
2022-08-08T10:26:57.393Z,101763.41
2022-08-08T10:29:23.215Z,101758.06
2022-08-08T10:31:57.362Z,101751.16
2022-08-08T10:34:27.510Z,101742.00
2022-08-08T10:36:56.552Z,101742.53
2022-08-08T10:39:43.080Z,101746.19
2022-08-08T10:42:18.933Z,101744.84
2022-08-08T10:44:49.373Z,101750.03
2022-08-08T10:47:20.961Z,101745.47
2022-08-08T10:50:04.404Z,101739.97
2022-08-08T10:52:49.857Z,101747.88
2022-08-08T10:55:40.506Z,101754.41
2022-08-08T10:58:10.618Z,101750.28
2022-08-08T11:00:53.352Z,101750.47
2022-08-08T11:04:01.304Z,101748.53
2022-08-08T11:06:34.707Z,101745.28
2022-08-08T11:09:19.960Z,101739.94
2022-08-08T11:12:04.771Z,101735.16
2022-08-08T11:14:48.857Z,101735.03
2022-08-08T11:17:15.878Z,101744.03
2022-08-08T11:19:43.547Z,101740.09
2022-08-08T11:22:14.903Z,101739.88
2022-08-08T11:24:43.658Z,101730.78
2022-08-08T11:27:23.067Z,101737.72
2022-08-08T11:30:19.513Z,101746.22
2022-08-08T11:32:40.090Z,101734.38
2022-08-08T11:35:27.759Z,101737.06
2022-08-08T11:38:35.860Z,101745.78
2022-08-08T11:40:51.136Z,101735.56
2022-08-08T11:43:21.716Z,101731.72
2022-08-08T11:46:09.989Z,101736.56
2022-08-08T11:48:38.873Z,101726.59
2022-08-08T11:51:37.994Z,101742.69
2022-08-08T11:53:55.318Z,101735.81
2022-08-08T11:56:25.782Z,101733.25
2022-08-08T11:58:52.500Z,101727.28
2022-08-08T12:01:19.020Z,101732.47
2022-08-08T12:03:49.221Z,101726.81
2022-08-08T12:06:17.592Z,101718.91
2022-08-08T12:08:44.409Z,101719.16
2022-08-08T12:11:18.342Z,101715.19
2022-08-08T12:14:04.533Z,101719.31
2022-08-08T12:16:34.379Z,101727.13
2022-08-08T12:19:11.461Z,101723.19
2022-08-08T12:21:59.513Z,101724.91
2022-08-08T12:24:27.663Z,101718.81
2022-08-08T12:26:56.957Z,101708.41
2022-08-08T12:29:40.386Z,101713.06
2022-08-08T12:32:13.337Z,101710.97
2022-08-08T12:35:01.194Z,101717.41
2022-08-08T12:37:41.504Z,101710.22
2022-08-08T12:40:22.642Z,101711.72
2022-08-08T12:42:50.949Z,101718.28
2022-08-08T12:45:58.771Z,101713.50
2022-08-08T12:48:35.483Z,101706.75
2022-08-08T12:51:03.146Z,101709.78
2022-08-08T12:53:36.417Z,101711.31
2022-08-08T12:56:18.807Z,101706.81
2022-08-08T12:58:53.954Z,101712.56
2022-08-08T13:01:24.622Z,101712.06
2022-08-08T13:04:12.552Z,101714.03
2022-08-08T13:07:00.996Z,101708.34
2022-08-08T13:10:04.525Z,101710.59
2022-08-08T13:12:35.917Z,101703.81
2022-08-08T13:15:11.622Z,101697.31
2022-08-08T13:18:07.652Z,101698.03
2022-08-08T13:20:27.575Z,101689.22
2022-08-08T13:23:26.822Z,101690.94
2022-08-08T13:25:41.053Z,101697.06
2022-08-08T13:28:07.469Z,101693.44
2022-08-08T13:30:34.280Z,101698.03
2022-08-08T13:33:00.588Z,101694.81
2022-08-08T13:35:39.073Z,101695.78
2022-08-08T13:38:13.483Z,101701.88
2022-08-08T13:40:44.990Z,101696.00
2022-08-08T13:43:12.313Z,101696.75
2022-08-08T13:45:38.674Z,101696.50
2022-08-08T13:48:16.150Z,101692.00
2022-08-08T13:50:50.734Z,101691.41
2022-08-08T13:53:34.126Z,101699.44
2022-08-08T13:56:04.763Z,101689.13
2022-08-08T13:58:31.313Z,101692.38
2022-08-08T14:01:10.907Z,101691.78
2022-08-08T14:03:52.409Z,101701.47
2022-08-08T14:06:33.122Z,101692.81
2022-08-08T14:09:25.253Z,101687.84
2022-08-08T14:11:47.785Z,101693.91
2022-08-08T14:14:20.601Z,101692.59
2022-08-08T14:16:50.883Z,101692.31
2022-08-08T14:19:29.739Z,101696.56
2022-08-08T14:22:13.584Z,101686.59
2022-08-08T14:24:52.843Z,101693.53
2022-08-08T14:27:27.281Z,101689.34
2022-08-08T14:30:01.707Z,101692.84
2022-08-08T14:32:30.551Z,101692.00
2022-08-08T14:35:06.278Z,101680.91
2022-08-08T14:37:57.046Z,101686.63
2022-08-08T14:40:26.400Z,101688.88
2022-08-08T14:42:56.669Z,101691.16
2022-08-08T14:45:26.818Z,101683.00
2022-08-08T14:48:01.453Z,101682.56
2022-08-08T14:50:38.300Z,101689.03
2022-08-08T14:53:13.645Z,101681.63
2022-08-08T14:55:42.916Z,101683.47
2022-08-08T14:58:16.879Z,101678.44
2022-08-08T15:00:48.530Z,101680.53
2022-08-08T15:03:17.015Z,101685.00
2022-08-08T15:05:53.392Z,101682.31
2022-08-08T15:08:35.186Z,101693.50
2022-08-08T15:11:07.182Z,101687.06
2022-08-08T15:13:40.688Z,101682.94
2022-08-08T15:16:21.952Z,101676.28
2022-08-08T15:18:51.582Z,101679.78
2022-08-08T15:21:19.070Z,101679.22
2022-08-08T15:23:51.168Z,101676.72
2022-08-08T15:26:25.718Z,101687.09
2022-08-08T15:28:54.157Z,101679.28
2022-08-08T15:31:55.967Z,101679.16
2022-08-08T15:34:08.444Z,101686.19
2022-08-08T15:36:35.326Z,101679.72
2022-08-08T15:39:03.824Z,101685.72
2022-08-08T15:41:43.771Z,101688.84
2022-08-08T15:44:13.694Z,101679.88
2022-08-08T15:46:40.223Z,101684.06
2022-08-08T15:49:12.186Z,101683.91
2022-08-08T15:51:38.496Z,101682.22
2022-08-08T15:54:06.949Z,101690.47
2022-08-08T15:56:45.404Z,101688.69
2022-08-08T15:59:13.204Z,101688.09
2022-08-08T16:01:40.826Z,101686.34
2022-08-08T16:04:29.558Z,101689.59
2022-08-08T16:06:56.634Z,101697.72
2022-08-08T16:13:03.643Z,101691.66
2022-08-08T16:13:10.008Z,101695.63
2022-08-08T16:14:56.993Z,101696.28
2022-08-08T16:17:57.507Z,101695.97
2022-08-08T16:20:13.505Z,101700.53
2022-08-08T16:22:41.729Z,101696.34
2022-08-08T16:25:09.103Z,101704.03
2022-08-08T16:27:37.000Z,101699.72
2022-08-08T16:30:08.078Z,101692.31
2022-08-08T16:32:35.687Z,101697.81
2022-08-08T16:35:02.904Z,101697.13
2022-08-08T16:37:30.294Z,101689.28
2022-08-08T16:40:03.413Z,101692.63
2022-08-08T16:42:30.358Z,101696.47
2022-08-08T16:44:56.983Z,101692.63
2022-08-08T16:47:41.415Z,101689.19
2022-08-08T16:50:14.973Z,101692.09
2022-08-08T16:55:03.609Z,101691.13
2022-08-08T16:55:54.134Z,101691.63
2022-08-08T16:58:17.755Z,101699.00
2022-08-08T17:00:48.642Z,101693.13
2022-08-08T17:03:25.405Z,101690.13
2022-08-08T17:06:04.553Z,101686.53
2022-08-08T17:08:30.901Z,101687.72
2022-08-08T17:11:10.227Z,101682.75
2022-08-08T17:13:41.214Z,101694.91
2022-08-08T17:16:16.912Z,101700.22
2022-08-08T17:18:45.446Z,101696.72
2022-08-08T17:21:12.474Z,101700.59
2022-08-08T17:23:58.410Z,101700.84
2022-08-08T17:26:29.071Z,101700.91
2022-08-08T17:28:56.745Z,101709.91
2022-08-08T17:31:44.487Z,101711.28
2022-08-08T17:34:49.090Z,101718.63
2022-08-08T17:37:00.743Z,101716.38
2022-08-08T17:40:03.991Z,101728.31
2022-08-08T17:42:18.197Z,101726.56
2022-08-08T17:44:49.656Z,101720.25
2022-08-08T17:47:27.827Z,101724.38
2022-08-08T17:50:01.361Z,101722.53
2022-08-08T17:52:35.208Z,101720.56
2022-08-08T17:55:05.553Z,101726.22
2022-08-08T17:57:49.503Z,101720.41
2022-08-08T18:00:19.367Z,101727.00
2022-08-08T18:02:52.439Z,101734.25
2022-08-08T18:05:47.983Z,101729.69
2022-08-08T18:08:24.689Z,101735.03
2022-08-08T18:11:05.548Z,101741.25
2022-08-08T18:13:34.890Z,101740.72
2022-08-08T18:16:08.004Z,101737.19
2022-08-08T18:18:39.044Z,101742.03
2022-08-08T18:21:10.606Z,101741.56
2022-08-08T18:23:42.967Z,101746.22
2022-08-08T18:26:19.346Z,101743.44
2022-08-08T18:28:53.538Z,101752.06
2022-08-08T18:31:21.626Z,101754.78
2022-08-08T18:34:24.986Z,101756.97
2022-08-08T18:36:34.376Z,101758.44
2022-08-08T18:39:03.037Z,101759.41
2022-08-08T18:41:51.047Z,101760.03
2022-08-08T18:44:15.708Z,101767.28
2022-08-08T18:46:54.231Z,101769.19
2022-08-08T18:49:24.229Z,101773.44
2022-08-08T18:51:54.012Z,101778.06
2022-08-08T18:54:22.299Z,101779.34
2022-08-08T18:56:49.513Z,101781.91
2022-08-08T18:59:15.827Z,101784.75
2022-08-08T19:02:25.004Z,101784.56
2022-08-08T19:04:29.032Z,101788.16
2022-08-08T19:06:56.080Z,101788.53
2022-08-08T19:09:23.271Z,101798.50
2022-08-08T19:12:13.292Z,101807.00
2022-08-08T19:14:39.957Z,101809.03
2022-08-08T19:17:10.644Z,101813.97
2022-08-08T19:19:37.620Z,101825.78
2022-08-08T19:22:10.727Z,101817.22
2022-08-08T19:24:43.211Z,101831.88
2022-08-08T19:27:57.032Z,101828.19
2022-08-08T19:30:18.094Z,101837.09
2022-08-08T19:32:50.665Z,101843.75
2022-08-08T19:35:17.198Z,101846.78
2022-08-08T19:37:55.071Z,101846.69
2022-08-08T19:40:30.920Z,101844.84
2022-08-08T19:42:58.868Z,101852.19
2022-08-08T19:45:59.670Z,101852.66
2022-08-08T19:48:28.694Z,101852.66
2022-08-08T19:51:01.371Z,101848.06
2022-08-08T19:53:51.477Z,101856.94
2022-08-08T19:56:16.383Z,101857.63
2022-08-08T19:58:52.666Z,101858.34
2022-08-08T20:01:25.945Z,101868.44
2022-08-08T20:04:01.649Z,101865.09
2022-08-08T20:06:29.582Z,101857.31
2022-08-08T20:08:56.101Z,101865.69
2022-08-08T20:11:22.642Z,101867.38
2022-08-08T20:14:12.410Z,101867.72
2022-08-08T20:16:40.400Z,101872.00
2022-08-08T20:19:07.592Z,101877.13
2022-08-08T20:21:37.329Z,101874.06
2022-08-08T20:24:07.799Z,101873.19
2022-08-08T20:26:35.478Z,101876.50
2022-08-08T20:29:05.645Z,101885.44
2022-08-08T20:31:47.241Z,101887.47
2022-08-08T20:34:29.405Z,101894.16
2022-08-08T20:37:02.513Z,101894.66
2022-08-08T20:39:39.185Z,101895.13
2022-08-08T20:42:18.712Z,101894.91
2022-08-08T20:44:46.823Z,101899.16
2022-08-08T20:47:15.769Z,101893.84
2022-08-08T20:49:50.080Z,101893.50
2022-08-08T20:52:20.424Z,101896.97
2022-08-08T20:54:47.495Z,101894.47
2022-08-08T20:57:17.324Z,101901.88
2022-08-08T20:59:45.287Z,101902.56
2022-08-08T21:02:25.788Z,101902.41
2022-08-08T21:04:54.259Z,101904.94
2022-08-08T21:07:46.925Z,101908.56
2022-08-08T21:10:12.634Z,101898.56
2022-08-08T21:12:39.682Z,101900.94
2022-08-08T21:15:12.001Z,101901.19
2022-08-08T21:17:43.138Z,101901.84
2022-08-08T21:20:11.721Z,101899.66
2022-08-08T21:22:38.480Z,101903.78
2022-08-08T21:25:13.636Z,101903.72
2022-08-08T21:28:13.295Z,101894.50
2022-08-08T21:30:30.172Z,101904.84
2022-08-08T21:32:56.994Z,101896.69
2022-08-08T21:36:14.125Z,101905.31
2022-08-08T21:38:16.344Z,101901.97
2022-08-08T21:40:56.186Z,101900.28
2022-08-08T21:43:33.587Z,101901.38
2022-08-08T21:48:06.605Z,101906.09
2022-08-08T21:48:54.552Z,101899.38
2022-08-08T21:54:18.191Z,101896.44
2022-08-08T21:54:27.176Z,101905.75
2022-08-08T21:56:59.758Z,101908.19
2022-08-08T21:59:28.474Z,101906.75
2022-08-08T22:02:14.143Z,101911.09
2022-08-08T22:04:42.454Z,101916.00
2022-08-08T22:07:08.759Z,101911.25
2022-08-08T22:09:41.123Z,101914.06
2022-08-08T22:12:15.067Z,101918.81
2022-08-08T22:14:43.860Z,101917.59
2022-08-08T22:17:13.845Z,101911.84
2022-08-08T22:20:10.562Z,101913.13
2022-08-08T22:22:29.229Z,101913.50
2022-08-08T22:24:58.005Z,101915.78
2022-08-08T22:27:38.998Z,101916.47
2022-08-08T22:30:13.542Z,101918.31
2022-08-08T22:32:40.163Z,101919.66
2022-08-08T22:35:07.264Z,101918.81
2022-08-08T22:37:53.566Z,101914.78
2022-08-08T22:40:20.699Z,101920.63
2022-08-08T22:42:48.004Z,101923.16
2022-08-08T22:45:15.239Z,101919.59
2022-08-08T22:47:46.872Z,101927.06
2022-08-08T22:50:27.435Z,101927.78
2022-08-08T22:53:00.018Z,101928.94
2022-08-08T22:55:58.101Z,101927.34
2022-08-08T22:58:28.543Z,101935.22
2022-08-08T23:00:56.033Z,101937.22
2022-08-08T23:03:24.084Z,101939.03
2022-08-08T23:06:01.965Z,101942.59
2022-08-08T23:08:28.392Z,101947.28
2022-08-08T23:11:06.152Z,101937.63
2022-08-08T23:13:42.135Z,101953.81
2022-08-08T23:16:37.758Z,101947.19
2022-08-08T23:19:08.836Z,101955.19
2022-08-08T23:21:35.474Z,101949.69
2022-08-08T23:24:04.929Z,101943.41
2022-08-08T23:26:31.297Z,101956.13
2022-08-08T23:28:57.721Z,101948.78
2022-08-08T23:31:24.049Z,101960.16
2022-08-08T23:34:17.031Z,101957.00
2022-08-08T23:36:36.741Z,101964.50
2022-08-08T23:39:03.348Z,101958.88
2022-08-08T23:41:46.141Z,101973.44
2022-08-08T23:44:16.411Z,101971.06
2022-08-08T23:49:01.451Z,101968.41
2022-08-08T23:49:31.937Z,101974.53
2022-08-08T23:52:06.017Z,101970.75
2022-08-08T23:54:41.252Z,101966.81
2022-08-08T23:57:15.283Z,101956.34
2022-08-08T23:59:55.634Z,101961.44
